Webcam Flughafen St.Gallen-Altenrhein

Live-Bilder und Zeitraffer LSZR / ACH.

 

Live aus Altenrhein
LIVE
LSZR 232020Z AUTO 03004KT 350V060 6000 BKN017 SCT022 M03/M06 Q0999
Zeitraffer heute
2019-01-23 00:14:18
LSZR 222250Z AUTO 10006KT 6000 OVC015 M03/M05 Q1002
Zeitraffer gestern
2019-01-22 00:14:16
LSZR 212250Z AUTO VRB01KT 4900 BR OVC011 M00/M02 Q1018
Zeitraffer vor 3 Tagen
2019-01-20 00:14:30
LSZR 192250Z AUTO 10001KT 5000 NSC M05/M06 Q1013